METAR Data
IDs: Format: Raw Decoded Include TAF

Data at: 0904 UTC 03 Aug 2021

KSBD 030900Z AUTO 15003KT 10SM CLR 24/05 A2999 RMK AO2 T02400049
KSBD 030840Z AUTO 00000KT 10SM CLR 24/06 A2999 RMK AO2 T02400058
KSBD 030820Z AUTO 00000KT 10SM CLR 24/05 A2999 RMK AO2 T02430048
KSBD 030800Z AUTO 00000KT 10SM CLR 25/04 A3000 RMK AO2 T02500044
KSBD 030740Z AUTO 00000KT 10SM CLR 25/03 A3000 RMK AO2 T02540025
KSBD 030720Z AUTO 00000KT 10SM CLR 26/02 A3001 RMK AO2 T02630020
KSBD 030700Z AUTO 00000KT 10SM CLR 26/02 A3001 RMK AO2 T02610022
KSBD 030640Z AUTO 00000KT 10SM CLR 27/02 A3001 RMK AO2 T02700023
KSBD 030620Z AUTO 00000KT 10SM CLR 27/02 A3001 RMK AO2 T02670018
KSBD 030600Z AUTO 06003KT 10SM CLR 27/02 A3001 RMK AO2 T02720024
KSBD 030540Z AUTO 00000KT 10SM CLR 29/02 A3001 RMK AO2 T02900019
KSBD 030520Z AUTO 00000KT 10SM CLR 29/02 A3001 RMK AO2 T02900021
KSBD 030500Z AUTO 23003KT 10SM CLR 30/02 A3001 RMK AO2 T02950022
KSBD 030440Z AUTO 24004KT 10SM CLR 29/01 A3001 RMK AO2 T02940014
KSBD 030355Z 26004KT 7SM CLR 30/00 A3000 RMK LAST
KSBD 030254Z 24006KT 7SM CLR 33/00 A2998
KSBD 030151Z 24009G14KT 7SM CLR 37/M01 A2996
KSBD 030054Z 27011G16KT 7SM CLR 39/02 A2995
KSBD 022351Z 27011G16KT 7SM CLR 40/02 A2994
KSBD 022254Z 29012G16KT 7SM CLR 41/02 A2995
KSBD 022151Z 26007KT 7SM CLR 41/05 A2997
KSBD 022056Z 29006G16KT 10SM CLR 40/03 A2999
KSBD 021951Z 00000KT 10SM CLR 39/03 A3001
KSBD 021851Z 00000KT 10SM CLR 36/03 A3003
KSBD 021751Z 00000KT 10SM CLR 34/02 A3006
KSBD 021652Z 00000KT 10SM CLR 32/02 A3008
KSBD 021551Z 00000KT 10SM CLR 29/04 A3008
KSBD 021451Z 00000KT 10SM CLR 26/06 A3008
KSBD 021400Z 00000KT 10SM CLR 23/08 A3007
KSBD 021240Z AUTO 00000KT 10SM CLR 21/07 A3005 RMK AO2 T02080069
KSBD 021220Z AUTO 00000KT 10SM CLR 22/07 A3004 RMK AO2 T02190073
KSBD 021200Z AUTO 00000KT 10SM CLR 22/08 A3004 RMK AO2 T02170081
KSBD 021140Z AUTO 00000KT 10SM CLR 22/09 A3004 RMK AO2 T02200088
KSBD 021120Z AUTO 00000KT 10SM CLR 23/07 A3004 RMK AO2 T02250074
KSBD 021100Z AUTO 07005KT 10SM CLR 22/07 A3004 RMK AO2 T02220070
KSBD 021040Z AUTO 00000KT 10SM CLR 22/09 A3004 RMK AO2 T02240089
KSBD 021020Z AUTO 00000KT 10SM CLR 22/08 A3004 RMK AO2 T02240080
KSBD 021000Z AUTO 00000KT 10SM CLR 22/08 A3004 RMK AO2 T02210076
KSBD 020940Z AUTO 07006KT 10SM CLR 22/08 A3004 RMK AO2 T02230076
KSBD 020920Z AUTO 13003KT 10SM CLR 23/08 A3004 RMK AO2 T02340079
KSBD 020900Z AUTO 16003KT 10SM CLR 24/07 A3005 RMK AO2 T02350071
KSBD 020840Z AUTO 00000KT 10SM CLR 24/07 A3005 RMK AO2 T02390070
KSBD 020820Z AUTO 07005KT 10SM CLR 24/07 A3006 RMK AO2 T02370071
KSBD 020800Z AUTO 00000KT 10SM CLR 24/07 A3006 RMK AO2 T02440074
KSBD 020740Z AUTO 00000KT 10SM CLR 26/07 A3006 RMK AO2 T02560065
KSBD 020720Z AUTO 00000KT 10SM CLR 26/06 A3006 RMK AO2 T02600062
KSBD 020700Z AUTO 00000KT 10SM CLR 26/06 A3006 RMK AO2 T02600062
KSBD 020640Z AUTO 00000KT 10SM CLR 26/06 A3006 RMK AO2 T02580063
KSBD 020620Z AUTO 23003KT 10SM CLR 26/06 A3006 RMK AO2 T02610061
KSBD 020600Z AUTO 24003KT 10SM CLR 26/06 A3006 RMK AO2 T02600060
KSBD 020540Z AUTO 25004KT 10SM CLR 26/06 A3006 RMK AO2 T02610058
KSBD 020520Z AUTO 25005KT 10SM CLR 26/06 A3006 RMK AO2 T02610055
KSBD 020500Z AUTO 25005KT 10SM CLR 27/05 A3006 RMK AO2 T02720047
KSBD 020440Z AUTO 25006KT 10SM CLR 28/04 A3005 RMK AO2 T02750040
KSBD 020355Z 25006KT 7SM CLR 29/03 A3004 RMK LAST
KSBD 020259Z 22004KT 7SM CLR 32/02 A3002
KSBD 020157Z 25010KT 7SM CLR 34/07 A3000
KSBD 020050Z 25011KT 7SM CLR 36/09 A2999
KSBD 012354Z 26012G15KT 7SM FEW120 38/07 A2999
KSBD 012259Z 29009G15KT 7SM FEW120 38/07 A3000
KSBD 012151Z 26007G14KT 7SM FEW120 38/05 A3001